sensor_id;sensor_type;location;lat;lon;timestamp;temperature;humidity
1329;DHT22;658;48.820;9.354;2023-07-08T00:02:31;24.20;44.80
1329;DHT22;658;48.820;9.354;2023-07-08T00:06:31;24.20;44.90
1329;DHT22;658;48.820;9.354;2023-07-08T00:10:32;24.20;45.00
1329;DHT22;658;48.820;9.354;2023-07-08T00:14:32;24.20;45.00
1329;DHT22;658;48.820;9.354;2023-07-08T00:18:33;24.10;45.10
1329;DHT22;658;48.820;9.354;2023-07-08T00:22:34;24.10;45.20
1329;DHT22;658;48.820;9.354;2023-07-08T00:26:36;24.10;45.20
1329;DHT22;658;48.820;9.354;2023-07-08T00:30:39;24.10;45.20
1329;DHT22;658;48.820;9.354;2023-07-08T00:34:40;24.10;45.30
1329;DHT22;658;48.820;9.354;2023-07-08T00:38:41;24.10;45.40
1329;DHT22;658;48.820;9.354;2023-07-08T00:42:45;24.10;45.60
1329;DHT22;658;48.820;9.354;2023-07-08T00:47:08;24.10;45.60
1329;DHT22;658;48.820;9.354;2023-07-08T00:51:09;24.00;45.70
1329;DHT22;658;48.820;9.354;2023-07-08T00:55:13;24.00;45.70
1329;DHT22;658;48.820;9.354;2023-07-08T00:59:24;24.00;45.70
1329;DHT22;658;48.820;9.354;2023-07-08T01:03:25;24.00;45.80
1329;DHT22;658;48.820;9.354;2023-07-08T01:07:28;24.00;45.90
1329;DHT22;658;48.820;9.354;2023-07-08T01:11:29;23.90;45.90
1329;DHT22;658;48.820;9.354;2023-07-08T01:15:35;23.90;45.90
1329;DHT22;658;48.820;9.354;2023-07-08T01:19:38;24.00;46.00
1329;DHT22;658;48.820;9.354;2023-07-08T01:23:38;23.90;46.10
1329;DHT22;658;48.820;9.354;2023-07-08T01:27:47;23.90;46.20
1329;DHT22;658;48.820;9.354;2023-07-08T01:31:48;23.90;46.20
1329;DHT22;658;48.820;9.354;2023-07-08T01:35:49;23.90;46.30
1329;DHT22;658;48.820;9.354;2023-07-08T01:39:51;23.90;46.30
1329;DHT22;658;48.820;9.354;2023-07-08T01:43:52;23.80;46.20
1329;DHT22;658;48.820;9.354;2023-07-08T01:48:08;23.80;46.30
1329;DHT22;658;48.820;9.354;2023-07-08T01:52:13;23.80;46.40
1329;DHT22;658;48.820;9.354;2023-07-08T01:56:15;23.80;46.40
1329;DHT22;658;48.820;9.354;2023-07-08T02:00:15;23.80;46.40
1329;DHT22;658;48.820;9.354;2023-07-08T02:04:16;23.80;46.50
1329;DHT22;658;48.820;9.354;2023-07-08T02:08:17;23.80;46.50
1329;DHT22;658;48.820;9.354;2023-07-08T02:12:17;23.80;46.50
1329;DHT22;658;48.820;9.354;2023-07-08T02:16:18;23.80;46.60
1329;DHT22;658;48.820;9.354;2023-07-08T02:20:19;23.80;46.70
1329;DHT22;658;48.820;9.354;2023-07-08T02:24:19;23.80;46.80
1329;DHT22;658;48.820;9.354;2023-07-08T02:28:20;23.80;46.80
1329;DHT22;658;48.820;9.354;2023-07-08T02:32:21;23.80;46.90
1329;DHT22;658;48.820;9.354;2023-07-08T02:36:22;23.80;47.00
1329;DHT22;658;48.820;9.354;2023-07-08T02:40:23;23.70;47.00
1329;DHT22;658;48.820;9.354;2023-07-08T02:44:26;23.70;47.00
1329;DHT22;658;48.820;9.354;2023-07-08T02:48:27;23.70;47.10
1329;DHT22;658;48.820;9.354;2023-07-08T02:52:27;23.70;47.20
1329;DHT22;658;48.820;9.354;2023-07-08T02:56:28;23.70;47.30
1329;DHT22;658;48.820;9.354;2023-07-08T03:00:28;23.70;47.30
1329;DHT22;658;48.820;9.354;2023-07-08T03:04:29;23.60;47.30
1329;DHT22;658;48.820;9.354;2023-07-08T03:08:30;23.60;47.40
1329;DHT22;658;48.820;9.354;2023-07-08T03:12:33;23.60;47.40
1329;DHT22;658;48.820;9.354;2023-07-08T03:16:34;23.60;47.40
1329;DHT22;658;48.820;9.354;2023-07-08T03:20:35;23.60;47.50
1329;DHT22;658;48.820;9.354;2023-07-08T03:24:38;23.60;47.50
1329;DHT22;658;48.820;9.354;2023-07-08T03:28:47;23.60;47.60
1329;DHT22;658;48.820;9.354;2023-07-08T03:32:48;23.60;47.60
1329;DHT22;658;48.820;9.354;2023-07-08T03:36:50;23.50;47.70
1329;DHT22;658;48.820;9.354;2023-07-08T03:40:51;23.50;47.70
1329;DHT22;658;48.820;9.354;2023-07-08T03:44:51;23.50;47.70
1329;DHT22;658;48.820;9.354;2023-07-08T03:48:52;23.50;47.70
1329;DHT22;658;48.820;9.354;2023-07-08T03:52:54;23.40;47.50
1329;DHT22;658;48.820;9.354;2023-07-08T03:56:55;23.40;47.60
1329;DHT22;658;48.820;9.354;2023-07-08T04:00:56;23.40;47.50
1329;DHT22;658;48.820;9.354;2023-07-08T04:04:56;23.50;47.60
1329;DHT22;658;48.820;9.354;2023-07-08T04:08:57;23.50;47.60
1329;DHT22;658;48.820;9.354;2023-07-08T04:12:57;23.40;47.50
1329;DHT22;658;48.820;9.354;2023-07-08T04:16:58;23.40;47.40
1329;DHT22;658;48.820;9.354;2023-07-08T04:20:59;23.50;47.50
1329;DHT22;658;48.820;9.354;2023-07-08T04:25:02;23.50;47.50
1329;DHT22;658;48.820;9.354;2023-07-08T04:29:17;23.50;47.60
1329;DHT22;658;48.820;9.354;2023-07-08T04:33:18;23.50;47.60
1329;DHT22;658;48.820;9.354;2023-07-08T04:37:19;23.40;47.60
1329;DHT22;658;48.820;9.354;2023-07-08T04:41:19;23.50;47.90
1329;DHT22;658;48.820;9.354;2023-07-08T04:45:20;23.40;47.80
1329;DHT22;658;48.820;9.354;2023-07-08T04:49:22;23.40;47.80
1329;DHT22;658;48.820;9.354;2023-07-08T04:53:23;23.40;47.90
1329;DHT22;658;48.820;9.354;2023-07-08T04:57:24;23.40;48.00
1329;DHT22;658;48.820;9.354;2023-07-08T05:01:25;23.30;47.90
1329;DHT22;658;48.820;9.354;2023-07-08T05:05:28;23.30;48.00
1329;DHT22;658;48.820;9.354;2023-07-08T05:09:29;23.30;47.90
1329;DHT22;658;48.820;9.354;2023-07-08T05:13:32;23.30;48.40
1329;DHT22;658;48.820;9.354;2023-07-08T05:17:32;23.30;48.50
1329;DHT22;658;48.820;9.354;2023-07-08T05:21:33;23.30;48.40
1329;DHT22;658;48.820;9.354;2023-07-08T05:25:35;23.30;48.30
1329;DHT22;658;48.820;9.354;2023-07-08T05:29:36;23.30;47.90
1329;DHT22;658;48.820;9.354;2023-07-08T05:33:36;23.30;48.00
1329;DHT22;658;48.820;9.354;2023-07-08T05:37:37;23.30;48.40
1329;DHT22;658;48.820;9.354;2023-07-08T05:41:40;23.30;48.30
1329;DHT22;658;48.820;9.354;2023-07-08T05:45:40;23.30;48.50
1329;DHT22;658;48.820;9.354;2023-07-08T05:49:41;23.40;48.50
1329;DHT22;658;48.820;9.354;2023-07-08T05:53:42;23.40;48.50
1329;DHT22;658;48.820;9.354;2023-07-08T05:57:43;23.40;48.60
1329;DHT22;658;48.820;9.354;2023-07-08T06:01:43;23.40;48.90
1329;DHT22;658;48.820;9.354;2023-07-08T06:05:44;23.40;48.60
1329;DHT22;658;48.820;9.354;2023-07-08T06:09:47;23.50;48.60
1329;DHT22;658;48.820;9.354;2023-07-08T06:13:48;23.50;48.40
1329;DHT22;658;48.820;9.354;2023-07-08T06:17:48;23.50;48.40
1329;DHT22;658;48.820;9.354;2023-07-08T06:21:49;23.50;48.10
1329;DHT22;658;48.820;9.354;2023-07-08T06:25:52;23.50;47.90
1329;DHT22;658;48.820;9.354;2023-07-08T06:29:53;23.50;47.60
1329;DHT22;658;48.820;9.354;2023-07-08T06:33:56;23.50;47.80
1329;DHT22;658;48.820;9.354;2023-07-08T06:37:57;23.60;47.80
1329;DHT22;658;48.820;9.354;2023-07-08T06:41:58;23.60;48.30
1329;DHT22;658;48.820;9.354;2023-07-08T06:45:58;23.60;47.70
1329;DHT22;658;48.820;9.354;2023-07-08T06:50:01;23.60;47.60
1329;DHT22;658;48.820;9.354;2023-07-08T06:54:02;23.60;47.60
1329;DHT22;658;48.820;9.354;2023-07-08T06:58:05;23.70;47.60
1329;DHT22;658;48.820;9.354;2023-07-08T07:02:05;23.70;47.60
1329;DHT22;658;48.820;9.354;2023-07-08T07:06:06;23.70;47.60
1329;DHT22;658;48.820;9.354;2023-07-08T07:10:07;23.70;47.80
1329;DHT22;658;48.820;9.354;2023-07-08T07:14:08;23.70;47.80
1329;DHT22;658;48.820;9.354;2023-07-08T07:18:09;23.70;47.80
1329;DHT22;658;48.820;9.354;2023-07-08T07:22:09;23.70;47.70
1329;DHT22;658;48.820;9.354;2023-07-08T07:26:10;23.80;47.80
1329;DHT22;658;48.820;9.354;2023-07-08T07:30:11;23.70;47.80
1329;DHT22;658;48.820;9.354;2023-07-08T07:34:15;23.80;47.90
1329;DHT22;658;48.820;9.354;2023-07-08T07:38:16;23.80;47.90
1329;DHT22;658;48.820;9.354;2023-07-08T07:42:18;23.80;47.90
1329;DHT22;658;48.820;9.354;2023-07-08T07:46:19;23.80;47.90
1329;DHT22;658;48.820;9.354;2023-07-08T07:50:20;23.80;47.90
1329;DHT22;658;48.820;9.354;2023-07-08T07:54:20;23.80;47.90
1329;DHT22;658;48.820;9.354;2023-07-08T07:58:23;23.80;47.90
1329;DHT22;658;48.820;9.354;2023-07-08T08:02:24;23.80;47.90
1329;DHT22;658;48.820;9.354;2023-07-08T08:06:25;23.80;47.90
1329;DHT22;658;48.820;9.354;2023-07-08T08:10:27;23.80;47.90
1329;DHT22;658;48.820;9.354;2023-07-08T08:14:28;23.90;48.00
1329;DHT22;658;48.820;9.354;2023-07-08T08:18:31;23.90;48.10
1329;DHT22;658;48.820;9.354;2023-07-08T08:22:32;23.90;48.40
1329;DHT22;658;48.820;9.354;2023-07-08T08:26:32;23.90;48.30
1329;DHT22;658;48.820;9.354;2023-07-08T08:30:33;23.90;48.40
1329;DHT22;658;48.820;9.354;2023-07-08T08:34:36;23.90;48.40
1329;DHT22;658;48.820;9.354;2023-07-08T08:38:36;23.90;48.50
1329;DHT22;658;48.820;9.354;2023-07-08T08:42:42;23.90;48.50
1329;DHT22;658;48.820;9.354;2023-07-08T08:51:16;23.90;48.40
1329;DHT22;658;48.820;9.354;2023-07-08T08:55:17;23.90;48.40
1329;DHT22;658;48.820;9.354;2023-07-08T09:03:39;24.00;48.50
1329;DHT22;658;48.820;9.354;2023-07-08T09:12:17;24.00;48.40
1329;DHT22;658;48.820;9.354;2023-07-08T09:20:39;24.00;48.40
1329;DHT22;658;48.820;9.354;2023-07-08T09:25:33;24.00;48.30
1329;DHT22;658;48.820;9.354;2023-07-08T09:29:14;24.10;48.40
1329;DHT22;658;48.820;9.354;2023-07-08T09:33:15;24.10;48.50
1329;DHT22;658;48.820;9.354;2023-07-08T09:37:36;24.10;48.40
1329;DHT22;658;48.820;9.354;2023-07-08T09:41:37;24.10;48.40
1329;DHT22;658;48.820;9.354;2023-07-08T09:45:46;24.10;48.40
1329;DHT22;658;48.820;9.354;2023-07-08T09:49:47;24.10;48.40
1329;DHT22;658;48.820;9.354;2023-07-08T09:53:48;24.10;48.40
1329;DHT22;658;48.820;9.354;2023-07-08T09:57:51;24.10;48.30
1329;DHT22;658;48.820;9.354;2023-07-08T10:01:53;24.20;48.50
1329;DHT22;658;48.820;9.354;2023-07-08T10:05:55;24.20;48.50
1329;DHT22;658;48.820;9.354;2023-07-08T10:10:06;24.20;48.40
1329;DHT22;658;48.820;9.354;2023-07-08T10:18:46;24.20;48.40
1329;DHT22;658;48.820;9.354;2023-07-08T10:23:01;24.20;48.70
1329;DHT22;658;48.820;9.354;2023-07-08T10:27:27;24.30;48.60
1329;DHT22;658;48.820;9.354;2023-07-08T10:31:45;24.20;48.50
1329;DHT22;658;48.820;9.354;2023-07-08T10:36:24;24.30;48.40
1329;DHT22;658;48.820;9.354;2023-07-08T10:40:48;24.30;48.50
1329;DHT22;658;48.820;9.354;2023-07-08T10:49:38;24.30;48.50
1329;DHT22;658;48.820;9.354;2023-07-08T11:02:50;24.30;48.60
1329;DHT22;658;48.820;9.354;2023-07-08T11:07:03;24.40;49.00
1329;DHT22;658;48.820;9.354;2023-07-08T11:11:32;24.40;49.00
1329;DHT22;658;48.820;9.354;2023-07-08T11:15:43;24.40;48.80
1329;DHT22;658;48.820;9.354;2023-07-08T11:20:07;24.40;48.80
1329;DHT22;658;48.820;9.354;2023-07-08T11:24:34;24.40;49.00
1329;DHT22;658;48.820;9.354;2023-07-08T11:28:37;24.40;48.80
1329;DHT22;658;48.820;9.354;2023-07-08T11:32:39;24.40;49.00
1329;DHT22;658;48.820;9.354;2023-07-08T11:36:41;24.40;49.10
1329;DHT22;658;48.820;9.354;2023-07-08T11:49:16;24.50;50.90
1329;DHT22;658;48.820;9.354;2023-07-08T11:57:37;24.50;50.50
1329;DHT22;658;48.820;9.354;2023-07-08T12:01:45;24.50;50.00
1329;DHT22;658;48.820;9.354;2023-07-08T12:05:46;24.50;50.00
1329;DHT22;658;48.820;9.354;2023-07-08T12:09:50;24.50;49.40
1329;DHT22;658;48.820;9.354;2023-07-08T12:14:02;24.50;49.40
1329;DHT22;658;48.820;9.354;2023-07-08T12:22:21;24.50;49.10
1329;DHT22;658;48.820;9.354;2023-07-08T12:26:22;24.60;49.30
1329;DHT22;658;48.820;9.354;2023-07-08T12:30:27;24.60;49.00
1329;DHT22;658;48.820;9.354;2023-07-08T12:34:29;24.60;49.10
1329;DHT22;658;48.820;9.354;2023-07-08T12:38:37;24.60;49.10
1329;DHT22;658;48.820;9.354;2023-07-08T12:42:38;24.60;49.10
1329;DHT22;658;48.820;9.354;2023-07-08T12:46:39;24.60;49.00
1329;DHT22;658;48.820;9.354;2023-07-08T12:50:39;24.60;48.90
1329;DHT22;658;48.820;9.354;2023-07-08T12:54:40;24.60;48.90
1329;DHT22;658;48.820;9.354;2023-07-08T12:58:43;24.60;48.90
1329;DHT22;658;48.820;9.354;2023-07-08T13:02:46;24.60;48.80
1329;DHT22;658;48.820;9.354;2023-07-08T13:06:48;24.70;48.90
1329;DHT22;658;48.820;9.354;2023-07-08T13:10:51;24.70;48.90
1329;DHT22;658;48.820;9.354;2023-07-08T13:14:54;24.70;48.80
1329;DHT22;658;48.820;9.354;2023-07-08T13:18:57;24.70;48.80
1329;DHT22;658;48.820;9.354;2023-07-08T13:23:00;24.70;48.60
1329;DHT22;658;48.820;9.354;2023-07-08T13:27:04;24.70;48.60
1329;DHT22;658;48.820;9.354;2023-07-08T13:31:19;24.80;48.70
1329;DHT22;658;48.820;9.354;2023-07-08T13:35:45;24.70;48.60
1329;DHT22;658;48.820;9.354;2023-07-08T13:39:46;24.70;48.50
1329;DHT22;658;48.820;9.354;2023-07-08T13:43:47;24.80;48.60
1329;DHT22;658;48.820;9.354;2023-07-08T13:48:00;24.80;48.60
1329;DHT22;658;48.820;9.354;2023-07-08T13:56:32;24.80;48.90
1329;DHT22;658;48.820;9.354;2023-07-08T14:00:36;24.80;48.80
1329;DHT22;658;48.820;9.354;2023-07-08T14:04:37;24.80;48.80
1329;DHT22;658;48.820;9.354;2023-07-08T14:08:37;24.90;48.90
1329;DHT22;658;48.820;9.354;2023-07-08T14:12:38;24.90;49.00
1329;DHT22;658;48.820;9.354;2023-07-08T14:16:48;24.90;49.00
1329;DHT22;658;48.820;9.354;2023-07-08T14:20:49;24.90;49.10
1329;DHT22;658;48.820;9.354;2023-07-08T14:24:50;24.90;49.10
1329;DHT22;658;48.820;9.354;2023-07-08T14:28:51;25.00;49.10
1329;DHT22;658;48.820;9.354;2023-07-08T14:32:52;25.00;49.10
1329;DHT22;658;48.820;9.354;2023-07-08T14:36:53;25.00;49.10
1329;DHT22;658;48.820;9.354;2023-07-08T14:40:54;25.00;49.10
1329;DHT22;658;48.820;9.354;2023-07-08T14:44:54;25.00;49.10
1329;DHT22;658;48.820;9.354;2023-07-08T14:48:57;25.00;49.20
1329;DHT22;658;48.820;9.354;2023-07-08T14:52:58;25.00;49.20
1329;DHT22;658;48.820;9.354;2023-07-08T14:57:04;25.10;49.20
1329;DHT22;658;48.820;9.354;2023-07-08T15:01:10;25.10;49.20
1329;DHT22;658;48.820;9.354;2023-07-08T15:05:30;25.10;49.20
1329;DHT22;658;48.820;9.354;2023-07-08T15:09:30;25.10;49.10
1329;DHT22;658;48.820;9.354;2023-07-08T15:13:31;25.10;49.10
1329;DHT22;658;48.820;9.354;2023-07-08T15:17:32;25.10;49.10
1329;DHT22;658;48.820;9.354;2023-07-08T15:21:33;25.20;49.20
1329;DHT22;658;48.820;9.354;2023-07-08T15:25:34;25.20;49.10
1329;DHT22;658;48.820;9.354;2023-07-08T15:29:36;25.20;49.20
1329;DHT22;658;48.820;9.354;2023-07-08T15:33:38;25.20;49.10
1329;DHT22;658;48.820;9.354;2023-07-08T15:37:39;25.30;49.10
1329;DHT22;658;48.820;9.354;2023-07-08T15:41:40;25.30;49.30
1329;DHT22;658;48.820;9.354;2023-07-08T15:45:41;25.30;49.30
1329;DHT22;658;48.820;9.354;2023-07-08T15:49:43;25.30;49.30
1329;DHT22;658;48.820;9.354;2023-07-08T15:53:44;25.30;49.20
1329;DHT22;658;48.820;9.354;2023-07-08T15:57:47;25.30;49.20
1329;DHT22;658;48.820;9.354;2023-07-08T16:01:49;25.30;49.20
1329;DHT22;658;48.820;9.354;2023-07-08T16:05:51;25.30;49.00
1329;DHT22;658;48.820;9.354;2023-07-08T16:09:52;25.30;49.00
1329;DHT22;658;48.820;9.354;2023-07-08T16:13:55;25.30;48.90
1329;DHT22;658;48.820;9.354;2023-07-08T16:17:56;25.30;48.90
1329;DHT22;658;48.820;9.354;2023-07-08T16:21:57;25.30;48.80
1329;DHT22;658;48.820;9.354;2023-07-08T16:25:58;25.30;48.80
1329;DHT22;658;48.820;9.354;2023-07-08T16:29:58;25.30;48.90
1329;DHT22;658;48.820;9.354;2023-07-08T16:34:00;25.30;48.80
1329;DHT22;658;48.820;9.354;2023-07-08T16:38:01;25.30;48.80
1329;DHT22;658;48.820;9.354;2023-07-08T16:42:01;25.30;48.80
1329;DHT22;658;48.820;9.354;2023-07-08T16:46:02;25.30;48.70
1329;DHT22;658;48.820;9.354;2023-07-08T16:50:03;25.30;48.80
1329;DHT22;658;48.820;9.354;2023-07-08T16:54:11;25.30;48.70
1329;DHT22;658;48.820;9.354;2023-07-08T16:58:13;25.30;48.70
1329;DHT22;658;48.820;9.354;2023-07-08T17:02:15;25.30;48.80
1329;DHT22;658;48.820;9.354;2023-07-08T17:06:16;25.30;48.70
1329;DHT22;658;48.820;9.354;2023-07-08T17:10:18;25.30;48.70
1329;DHT22;658;48.820;9.354;2023-07-08T17:14:18;25.30;48.70
1329;DHT22;658;48.820;9.354;2023-07-08T17:18:21;25.40;48.80
1329;DHT22;658;48.820;9.354;2023-07-08T17:22:22;25.30;48.70
1329;DHT22;658;48.820;9.354;2023-07-08T17:26:22;25.40;48.80
1329;DHT22;658;48.820;9.354;2023-07-08T17:30:25;25.40;48.80
1329;DHT22;658;48.820;9.354;2023-07-08T17:34:26;25.40;48.80
1329;DHT22;658;48.820;9.354;2023-07-08T17:38:42;25.40;48.80
1329;DHT22;658;48.820;9.354;2023-07-08T17:42:47;25.40;48.80
1329;DHT22;658;48.820;9.354;2023-07-08T17:46:48;25.40;48.80
1329;DHT22;658;48.820;9.354;2023-07-08T17:50:49;25.40;48.80
1329;DHT22;658;48.820;9.354;2023-07-08T17:54:49;25.40;48.80
1329;DHT22;658;48.820;9.354;2023-07-08T17:58:52;25.40;48.80
1329;DHT22;658;48.820;9.354;2023-07-08T18:02:55;25.40;48.80
1329;DHT22;658;48.820;9.354;2023-07-08T18:06:56;25.40;48.80
1329;DHT22;658;48.820;9.354;2023-07-08T18:10:57;25.50;49.00
1329;DHT22;658;48.820;9.354;2023-07-08T18:15:00;25.50;48.90
1329;DHT22;658;48.820;9.354;2023-07-08T18:19:04;25.50;48.90
1329;DHT22;658;48.820;9.354;2023-07-08T18:23:20;25.50;48.90
1329;DHT22;658;48.820;9.354;2023-07-08T18:27:23;25.50;49.00
1329;DHT22;658;48.820;9.354;2023-07-08T18:31:29;25.50;49.00
1329;DHT22;658;48.820;9.354;2023-07-08T18:35:31;25.50;48.90
1329;DHT22;658;48.820;9.354;2023-07-08T18:39:31;25.50;49.00
1329;DHT22;658;48.820;9.354;2023-07-08T18:43:32;25.50;48.90
1329;DHT22;658;48.820;9.354;2023-07-08T18:47:32;25.50;49.00
1329;DHT22;658;48.820;9.354;2023-07-08T18:51:42;25.50;48.90
1329;DHT22;658;48.820;9.354;2023-07-08T18:55:44;25.50;48.90
1329;DHT22;658;48.820;9.354;2023-07-08T18:59:44;25.50;48.90
1329;DHT22;658;48.820;9.354;2023-07-08T19:03:46;25.50;48.90
1329;DHT22;658;48.820;9.354;2023-07-08T19:07:50;25.50;48.90
1329;DHT22;658;48.820;9.354;2023-07-08T19:11:51;25.50;48.90
1329;DHT22;658;48.820;9.354;2023-07-08T19:15:52;25.50;48.90
1329;DHT22;658;48.820;9.354;2023-07-08T19:19:53;25.50;48.90
1329;DHT22;658;48.820;9.354;2023-07-08T19:23:56;25.60;50.00
1329;DHT22;658;48.820;9.354;2023-07-08T19:27:58;25.60;49.50
1329;DHT22;658;48.820;9.354;2023-07-08T19:31:59;25.70;49.80
1329;DHT22;658;48.820;9.354;2023-07-08T19:36:00;25.70;49.80
1329;DHT22;658;48.820;9.354;2023-07-08T19:40:03;25.80;50.00
1329;DHT22;658;48.820;9.354;2023-07-08T19:44:09;25.80;50.10
1329;DHT22;658;48.820;9.354;2023-07-08T19:48:12;25.90;49.90
1329;DHT22;658;48.820;9.354;2023-07-08T19:52:13;26.00;49.90
1329;DHT22;658;48.820;9.354;2023-07-08T19:56:15;26.00;50.10
1329;DHT22;658;48.820;9.354;2023-07-08T20:00:23;26.10;50.50
1329;DHT22;658;48.820;9.354;2023-07-08T20:04:24;26.10;50.80
1329;DHT22;658;48.820;9.354;2023-07-08T20:08:32;26.10;50.60
1329;DHT22;658;48.820;9.354;2023-07-08T20:12:32;26.10;50.70
1329;DHT22;658;48.820;9.354;2023-07-08T20:16:36;26.10;50.60
1329;DHT22;658;48.820;9.354;2023-07-08T20:20:38;26.20;50.80
1329;DHT22;658;48.820;9.354;2023-07-08T20:24:38;26.20;50.70
1329;DHT22;658;48.820;9.354;2023-07-08T20:28:39;26.10;50.90
1329;DHT22;658;48.820;9.354;2023-07-08T20:32:39;26.10;50.60
1329;DHT22;658;48.820;9.354;2023-07-08T20:36:40;26.10;50.60
1329;DHT22;658;48.820;9.354;2023-07-08T20:40:41;26.10;50.90
1329;DHT22;658;48.820;9.354;2023-07-08T20:44:41;26.10;50.80
1329;DHT22;658;48.820;9.354;2023-07-08T20:48:42;26.00;50.60
1329;DHT22;658;48.820;9.354;2023-07-08T20:52:43;26.00;50.90
1329;DHT22;658;48.820;9.354;2023-07-08T20:56:46;26.00;51.00
1329;DHT22;658;48.820;9.354;2023-07-08T21:00:48;26.00;51.20
1329;DHT22;658;48.820;9.354;2023-07-08T21:04:50;26.00;51.20
1329;DHT22;658;48.820;9.354;2023-07-08T21:08:51;25.90;51.00
1329;DHT22;658;48.820;9.354;2023-07-08T21:12:55;25.90;51.40
1329;DHT22;658;48.820;9.354;2023-07-08T21:16:55;25.90;51.00
1329;DHT22;658;48.820;9.354;2023-07-08T21:20:56;25.90;51.20
1329;DHT22;658;48.820;9.354;2023-07-08T21:24:57;25.80;51.40
1329;DHT22;658;48.820;9.354;2023-07-08T21:29:00;25.80;51.30
1329;DHT22;658;48.820;9.354;2023-07-08T21:33:01;25.80;51.00
1329;DHT22;658;48.820;9.354;2023-07-08T21:37:02;25.80;51.00
1329;DHT22;658;48.820;9.354;2023-07-08T21:41:02;25.80;50.80
1329;DHT22;658;48.820;9.354;2023-07-08T21:45:25;25.80;50.80
1329;DHT22;658;48.820;9.354;2023-07-08T21:49:26;25.80;50.40
1329;DHT22;658;48.820;9.354;2023-07-08T21:53:32;25.70;50.90
1329;DHT22;658;48.820;9.354;2023-07-08T21:57:32;25.60;51.00
1329;DHT22;658;48.820;9.354;2023-07-08T22:01:33;25.60;50.80
1329;DHT22;658;48.820;9.354;2023-07-08T22:05:37;25.60;50.70
1329;DHT22;658;48.820;9.354;2023-07-08T22:09:37;25.60;50.80
1329;DHT22;658;48.820;9.354;2023-07-08T22:13:38;25.50;50.90
1329;DHT22;658;48.820;9.354;2023-07-08T22:17:39;25.50;51.30
1329;DHT22;658;48.820;9.354;2023-07-08T22:21:40;25.50;51.50
1329;DHT22;658;48.820;9.354;2023-07-08T22:25:40;25.40;51.60
1329;DHT22;658;48.820;9.354;2023-07-08T22:29:41;25.40;51.60
1329;DHT22;658;48.820;9.354;2023-07-08T22:33:41;25.40;51.80
1329;DHT22;658;48.820;9.354;2023-07-08T22:37:42;25.30;51.70
1329;DHT22;658;48.820;9.354;2023-07-08T22:41:53;25.30;52.00
1329;DHT22;658;48.820;9.354;2023-07-08T22:45:54;25.30;51.90
1329;DHT22;658;48.820;9.354;2023-07-08T22:49:58;25.30;52.00
1329;DHT22;658;48.820;9.354;2023-07-08T22:54:04;25.30;52.00
1329;DHT22;658;48.820;9.354;2023-07-08T22:58:21;25.20;52.10
1329;DHT22;658;48.820;9.354;2023-07-08T23:02:22;25.20;52.00
1329;DHT22;658;48.820;9.354;2023-07-08T23:06:25;25.20;52.20
1329;DHT22;658;48.820;9.354;2023-07-08T23:10:28;25.20;52.20
1329;DHT22;658;48.820;9.354;2023-07-08T23:14:29;25.20;52.20
1329;DHT22;658;48.820;9.354;2023-07-08T23:18:31;25.20;52.30
1329;DHT22;658;48.820;9.354;2023-07-08T23:22:32;25.10;52.30
1329;DHT22;658;48.820;9.354;2023-07-08T23:26:38;25.10;52.40
1329;DHT22;658;48.820;9.354;2023-07-08T23:30:40;25.10;52.40
1329;DHT22;658;48.820;9.354;2023-07-08T23:34:43;25.10;52.50
1329;DHT22;658;48.820;9.354;2023-07-08T23:38:43;25.00;52.50
1329;DHT22;658;48.820;9.354;2023-07-08T23:42:44;25.00;52.50
1329;DHT22;658;48.820;9.354;2023-07-08T23:46:47;25.00;52.60
1329;DHT22;658;48.820;9.354;2023-07-08T23:50:51;25.00;52.50
1329;DHT22;658;48.820;9.354;2023-07-08T23:54:52;25.00;52.50
1329;DHT22;658;48.820;9.354;2023-07-08T23:58:54;25.00;52.60
